TimeAWST,TemperatureF,Dew PointF,Humidity,Sea Level PressureIn,VisibilityMPH,Wind Direction,Wind SpeedMPH,Gust SpeedMPH,PrecipitationIn,Events,Conditions,WindDirDegrees,DateUTC
12:00 AM,71,59,57,29.96,,SW,9.2,,,,,220,2013-08-27 16:00:00
12:00 AM,69.8,59.0,68,29.95,-9999.0,SW,9.2,-,N/A,,Unknown,220,2013-08-27 16:00:00
1:00 AM,68.0,59.0,73,29.95,-9999.0,SSW,8.1,-,N/A,,Unknown,210,2013-08-27 17:00:00
2:00 AM,68.0,60.8,78,29.95,-9999.0,South,8.1,-,N/A,,Unknown,190,2013-08-27 18:00:00
3:00 AM,64,57,73,29.94,,SSW,5.8,,,,,200,2013-08-27 19:00:00
3:00 AM,64.4,57.2,77,29.95,-9999.0,SSW,5.8,-,N/A,,Unknown,200,2013-08-27 19:00:00
4:00 AM,66.2,59.0,78,29.95,-9999.0,SSW,6.9,-,N/A,,Unknown,200,2013-08-27 20:00:00
5:00 AM,66.2,57.2,73,29.95,-9999.0,SSW,6.9,-,N/A,,Unknown,200,2013-08-27 21:00:00
6:00 AM,64,57,72,29.98,,SSW,13.4,,,,,200,2013-08-27 22:00:00
6:00 AM,64.4,57.2,77,29.98,-9999.0,SSW,6.9,-,N/A,,Unknown,200,2013-08-27 22:00:00
7:00 AM,68.0,59.0,73,30.01,-9999.0,Calm,Calm,-,N/A,,Unknown,0,2013-08-27 23:00:00
8:00 AM,75.2,55.4,50,30.01,-9999.0,Calm,Calm,-,N/A,,Unknown,0,2013-08-28 00:00:00
9:00 AM,82,54,27,30.02,,South,5.8,,,,,190,2013-08-28 01:00:00
9:00 AM,82.4,53.6,37,30.01,-9999.0,South,5.8,-,N/A,,Unknown,190,2013-08-28 01:00:00
10:00 AM,87.8,51.8,29,30.01,-9999.0,South,6.9,-,N/A,,Unknown,190,2013-08-28 02:00:00
11:00 AM,89.6,44.6,21,29.98,-9999.0,South,6.9,-,N/A,,Unknown,180,2013-08-28 03:00:00
12:00 PM,93,43,10,29.94,,WSW,8.9,,,,,240,2013-08-28 04:00:00
12:00 PM,93.2,42.8,17,29.92,-9999.0,WSW,4.6,-,N/A,,Unknown,240,2013-08-28 04:00:00
1:00 PM,95.0,44.6,18,29.89,-9999.0,South,9.2,-,N/A,,Unknown,190,2013-08-28 05:00:00
2:00 PM,95.0,42.8,16,29.86,-9999.0,South,8.1,-,N/A,,Unknown,170,2013-08-28 06:00:00
3:00 PM,94,41,9,29.85,,NNE,13.4,,,,,30,2013-08-28 07:00:00
3:00 PM,95.0,41.0,15,29.86,-9999.0,NNE,6.9,-,N/A,,Unknown,30,2013-08-28 07:00:00
4:00 PM,95.0,42.8,16,29.86,-9999.0,West,8.1,-,N/A,,Unknown,270,2013-08-28 08:00:00
5:00 PM,91.4,46.4,21,29.86,-9999.0,NW,10.4,-,N/A,,Unknown,320,2013-08-28 09:00:00
6:00 PM,85,47,17,29.89,,NW,13.4,,,,,310,2013-08-28 10:00:00
6:00 PM,84.2,48.2,29,29.89,-9999.0,NW,6.9,-,N/A,,Unknown,310,2013-08-28 10:00:00
7:00 PM,80.6,46.4,30,29.92,-9999.0,NW,6.9,-,N/A,,Unknown,310,2013-08-28 11:00:00
8:00 PM,77.0,53.6,44,29.95,-9999.0,NW,5.8,-,N/A,,Unknown,320,2013-08-28 12:00:00
9:00 PM,75,57,44,29.94,,WNW,8.9,,,,,290,2013-08-28 13:00:00
9:00 PM,75.2,57.2,53,29.95,-9999.0,WNW,4.6,-,N/A,,Unknown,290,2013-08-28 13:00:00
10:00 PM,69.8,55.4,60,29.95,-9999.0,West,4.6,-,N/A,,Unknown,270,2013-08-28 14:00:00
11:00 PM,69.8,53.6,56,29.95,-9999.0,SW,5.8,-,N/A,,Unknown,230,2013-08-28 15:00:00